Time;durP1;ratioP1;P1;durP2;ratioP2;P2;SDS_P1;SDS_P2;PMS_P1;PMS_P2;Temp;Humidity;BMP_temperature;BMP_pressure;BME280_temperature;BME280_humidity;BME280_pressure;Samples;Min_cycle;Max_cycle;Signal;HPM_P1;HPM_P2
2022/08/21 00:01:52;;;;;;;;;;;23.30;73.90;;;;;;6099633;23;1263;-66
2022/08/21 00:04:17;;;;;;;;;;;23.30;73.80;;;;;;6126849;23;1956;-63
2022/08/21 00:06:42;;;;;;;;;;;23.30;73.90;;;;;;6125763;23;1007;-63
2022/08/21 00:09:08;;;;;;;;;;;23.30;73.80;;;;;;6126719;23;999;-64
2022/08/21 00:11:34;;;;;;;;;;;23.30;73.90;;;;;;6126115;23;1201;-66
2022/08/21 00:14:00;;;;;;;;;;;23.30;73.90;;;;;;6100830;23;870;-65
2022/08/21 00:16:25;;;;;;;;;;;23.30;73.90;;;;;;6100571;23;793;-65
2022/08/21 00:18:51;;;;;;;;;;;23.20;74.50;;;;;;6126704;23;821;-66
2022/08/21 00:21:16;;;;;;;;;;;23.20;73.80;;;;;;6126447;23;1164;-65
2022/08/21 00:23:42;;;;;;;;;;;23.20;73.80;;;;;;6126756;23;1885;-67
2022/08/21 00:26:07;;;;;;;;;;;23.20;73.80;;;;;;6125899;23;773;-65
2022/08/21 00:28:33;;;;;;;;;;;23.30;73.90;;;;;;6126739;23;1014;-66
2022/08/21 00:30:58;;;;;;;;;;;23.30;73.90;;;;;;6126476;23;1271;-67
2022/08/21 00:33:24;;;;;;;;;;;23.20;73.80;;;;;;6126314;23;813;-63
2022/08/21 00:35:49;;;;;;;;;;;23.20;73.80;;;;;;6125890;23;983;-65
2022/08/21 00:38:15;;;;;;;;;;;23.20;73.80;;;;;;6126950;23;908;-64
2022/08/21 00:40:42;;;;;;;;;;;23.30;73.90;;;;;;6126608;23;825;-64
2022/08/21 00:43:08;;;;;;;;;;;23.20;74.10;;;;;;6100559;23;1177;-65
2022/08/21 00:45:34;;;;;;;;;;;23.20;73.80;;;;;;6125503;23;1889;-64
2022/08/21 00:47:59;;;;;;;;;;;23.20;73.90;;;;;;6126249;23;793;-66
2022/08/21 00:50:29;;;;;;;;;;;23.20;73.90;;;;;;6100732;23;820;-65
2022/08/21 00:52:54;;;;;;;;;;;23.20;73.80;;;;;;6126441;23;1161;-65
2022/08/21 00:55:20;;;;;;;;;;;23.20;73.80;;;;;;6100236;23;880;-66
2022/08/21 00:57:47;;;;;;;;;;;23.20;73.90;;;;;;6099991;23;832;-65
2022/08/21 01:00:14;;;;;;;;;;;23.20;73.80;;;;;;6100489;23;1035;-66
2022/08/21 01:02:39;;;;;;;;;;;23.30;73.90;;;;;;6100102;23;1274;-66
2022/08/21 01:05:05;;;;;;;;;;;23.20;73.90;;;;;;6126468;23;1929;-66
2022/08/21 01:07:31;;;;;;;;;;;23.30;73.90;;;;;;6099872;23;785;-65
2022/08/21 01:09:57;;;;;;;;;;;23.20;73.90;;;;;;6100591;23;868;-65
2022/08/21 01:12:22;;;;;;;;;;;23.30;73.90;;;;;;6100355;23;1266;-66
2022/08/21 01:14:48;;;;;;;;;;;23.20;73.90;;;;;;6125999;23;1031;-66
2022/08/21 01:17:13;;;;;;;;;;;23.20;73.90;;;;;;6125690;23;828;-65
2022/08/21 01:19:39;;;;;;;;;;;23.20;73.90;;;;;;6100198;23;1177;-66
2022/08/21 01:22:05;;;;;;;;;;;23.20;73.90;;;;;;6100180;23;1279;-66
2022/08/21 01:24:31;;;;;;;;;;;23.20;74.20;;;;;;6075987;23;1889;-65
2022/08/21 01:26:56;;;;;;;;;;;23.20;73.90;;;;;;6125668;23;825;-65
2022/08/21 01:29:28;;;;;;;;;;;23.30;74.00;;;;;;6099920;23;716;-66
2022/08/21 01:31:53;;;;;;;;;;;23.30;73.90;;;;;;6125636;23;1223;-65
2022/08/21 01:34:19;;;;;;;;;;;23.20;73.90;;;;;;6100267;23;852;-65
2022/08/21 01:36:44;;;;;;;;;;;23.20;73.90;;;;;;6125559;23;891;-65
2022/08/21 01:39:10;;;;;;;;;;;23.30;74.00;;;;;;6099854;23;840;-65
2022/08/21 01:41:35;;;;;;;;;;;23.20;73.90;;;;;;6126220;23;1164;-65
2022/08/21 01:44:01;;;;;;;;;;;23.20;73.90;;;;;;6125780;23;1921;-65
2022/08/21 01:46:26;;;;;;;;;;;23.20;73.90;;;;;;6125461;23;1011;-65
2022/08/21 01:48:52;;;;;;;;;;;23.20;73.90;;;;;;6125749;23;863;-65
2022/08/21 01:51:17;;;;;;;;;;;23.20;73.90;;;;;;6099919;23;1184;-66
2022/08/21 01:53:43;;;;;;;;;;;23.20;73.90;;;;;;6099967;23;924;-66
2022/08/21 01:56:09;;;;;;;;;;;23.20;73.90;;;;;;6125006;23;995;-66
2022/08/21 01:58:34;;;;;;;;;;;23.20;73.90;;;;;;6125769;23;821;-65
2022/08/21 02:01:01;;;;;;;;;;;23.20;73.90;;;;;;6098776;23;1199;-66
2022/08/21 02:03:27;;;;;;;;;;;23.20;73.90;;;;;;6126261;23;808;-66
2022/08/21 02:05:53;;;;;;;;;;;23.20;73.90;;;;;;6096983;23;1897;-66
2022/08/21 02:08:18;;;;;;;;;;;23.20;73.90;;;;;;6126158;23;856;-67
2022/08/21 02:10:43;;;;;;;;;;;23.20;74.00;;;;;;6125114;23;718;-66
2022/08/21 02:13:09;;;;;;;;;;;23.20;73.90;;;;;;6126208;23;1200;-67
2022/08/21 02:15:34;;;;;;;;;;;23.20;74.00;;;;;;6124712;23;909;-66
2022/08/21 02:18:00;;;;;;;;;;;23.20;73.90;;;;;;6125997;23;1003;-66
2022/08/21 02:20:27;;;;;;;;;;;23.20;73.90;;;;;;6099456;23;853;-66
2022/08/21 02:22:53;;;;;;;;;;;23.20;74.00;;;;;;6125881;23;1239;-65
2022/08/21 02:25:19;;;;;;;;;;;23.20;73.90;;;;;;6125399;23;1881;-63
2022/08/21 02:27:44;;;;;;;;;;;23.20;74.00;;;;;;6124928;23;928;-65
2022/08/21 02:30:11;;;;;;;;;;;23.20;74.00;;;;;;6125606;23;789;-65
2022/08/21 02:32:36;;;;;;;;;;;23.20;73.90;;;;;;6099607;23;1346;-64
2022/08/21 02:35:02;;;;;;;;;;;23.20;73.90;;;;;;6125685;23;825;-64
2022/08/21 02:37:28;;;;;;;;;;;23.20;74.00;;;;;;6124770;23;1015;-65
2022/08/21 02:39:53;;;;;;;;;;;23.20;74.00;;;;;;6125393;23;1007;-66
2022/08/21 02:42:19;;;;;;;;;;;23.20;74.00;;;;;;6125279;23;1278;-66
2022/08/21 02:44:44;;;;;;;;;;;23.20;74.00;;;;;;6125646;23;1952;-65
2022/08/21 02:47:10;;;;;;;;;;;23.20;74.00;;;;;;6098930;23;892;-66
2022/08/21 02:49:35;;;;;;;;;;;23.20;74.00;;;;;;6125263;23;1066;-64
2022/08/21 02:52:01;;;;;;;;;;;23.20;74.00;;;;;;6125268;23;1239;-66
2022/08/21 02:54:26;;;;;;;;;;;23.20;74.00;;;;;;6125297;23;784;-67
2022/08/21 02:56:52;;;;;;;;;;;23.20;73.90;;;;;;6124518;23;872;-64
2022/08/21 02:59:17;;;;;;;;;;;23.20;74.00;;;;;;6125774;23;872;-65
2022/08/21 03:01:43;;;;;;;;;;;23.20;74.00;;;;;;6125030;23;1267;-66
2022/08/21 03:04:09;;;;;;;;;;;23.20;74.00;;;;;;6125330;23;1889;-65
2022/08/21 03:06:34;;;;;;;;;;;23.20;74.00;;;;;;6099048;23;1055;-66
2022/08/21 03:09:00;;;;;;;;;;;23.20;74.00;;;;;;6125499;23;999;-66
2022/08/21 03:11:26;;;;;;;;;;;23.20;74.00;;;;;;6099628;23;1278;-65
2022/08/21 03:13:51;;;;;;;;;;;23.20;74.00;;;;;;6126496;23;801;-65
2022/08/21 03:16:18;;;;;;;;;;;23.20;74.00;;;;;;6100791;23;896;-65
2022/08/21 03:18:43;;;;;;;;;;;23.20;74.00;;;;;;6127204;23;914;-66
2022/08/21 03:21:09;;;;;;;;;;;23.20;74.00;;;;;;6127104;23;1198;-66
2022/08/21 03:23:35;;;;;;;;;;;23.20;74.00;;;;;;6101692;23;1314;-65
2022/08/21 03:26:00;;;;;;;;;;;23.20;74.00;;;;;;6126275;23;1932;-65
2022/08/21 03:28:25;;;;;;;;;;;23.20;74.00;;;;;;6126941;23;729;-66
2022/08/21 03:30:51;;;;;;;;;;;23.20;74.00;;;;;;6127489;23;1224;-65
2022/08/21 03:33:17;;;;;;;;;;;23.20;74.00;;;;;;6101160;23;860;-65
2022/08/21 03:35:42;;;;;;;;;;;23.20;74.00;;;;;;6100605;23;1206;-65
2022/08/21 03:38:08;;;;;;;;;;;23.20;74.00;;;;;;6127307;23;816;-66
2022/08/21 03:40:33;;;;;;;;;;;23.20;74.00;;;;;;6126923;23;776;-66
2022/08/21 03:42:59;;;;;;;;;;;23.20;74.00;;;;;;6126805;23;1260;-66
2022/08/21 03:45:24;;;;;;;;;;;23.20;74.00;;;;;;6126623;23;1933;-66
2022/08/21 03:47:59;;;;;;;;;;;23.20;74.00;;;;;;6126537;23;1074;-67
2022/08/21 03:50:26;;;;;;;;;;;23.20;74.00;;;;;;6127270;23;809;-65
2022/08/21 03:52:51;;;;;;;;;;;23.20;74.00;;;;;;6126644;23;1229;-66
2022/08/21 03:55:16;;;;;;;;;;;23.20;74.00;;;;;;6100883;23;1337;-66
2022/08/21 03:57:42;;;;;;;;;;;23.20;74.00;;;;;;6126040;23;877;-66
2022/08/21 04:00:09;;;;;;;;;;;23.20;74.00;;;;;;6127060;23;880;-66
2022/08/21 04:02:35;;;;;;;;;;;23.20;74.80;;;;;;6126596;23;1245;-66
2022/08/21 04:05:01;;;;;;;;;;;23.20;74.10;;;;;;6127097;23;1916;-68
2022/08/21 04:07:26;;;;;;;;;;;23.20;74.00;;;;;;6101117;23;919;-69
2022/08/21 04:09:51;;;;;;;;;;;23.20;74.00;;;;;;6127486;23;871;-68
2022/08/21 04:12:17;;;;;;;;;;;23.20;74.00;;;;;;6127039;23;875;-70
2022/08/21 04:14:42;;;;;;;;;;;23.20;74.00;;;;;;6101178;23;1291;-68
2022/08/21 04:17:08;;;;;;;;;;;23.20;74.00;;;;;;6126818;23;1010;-68
2022/08/21 04:19:33;;;;;;;;;;;23.20;74.00;;;;;;6127228;23;974;-68
2022/08/21 04:21:59;;;;;;;;;;;23.20;74.00;;;;;;6101181;23;1205;-69
2022/08/21 04:24:24;;;;;;;;;;;23.20;74.00;;;;;;6076799;23;1889;-68
2022/08/21 04:26:49;;;;;;;;;;;23.20;74.00;;;;;;6126970;23;773;-69
2022/08/21 04:29:15;;;;;;;;;;;23.20;74.00;;;;;;6127604;23;836;-70
2022/08/21 04:31:40;;;;;;;;;;;23.10;74.00;;;;;;6127081;23;975;-70
2022/08/21 04:34:06;;;;;;;;;;;23.10;74.00;;;;;;6126933;23;1197;-70
2022/08/21 04:36:32;;;;;;;;;;;23.20;74.10;;;;;;6126764;23;1070;-70
2022/08/21 04:38:58;;;;;;;;;;;23.20;74.00;;;;;;6101270;23;800;-71
2022/08/21 04:41:23;;;;;;;;;;;23.10;74.00;;;;;;6126819;23;804;-70
2022/08/21 04:43:49;;;;;;;;;;;23.20;74.00;;;;;;6126946;23;1927;-70
2022/08/21 04:46:15;;;;;;;;;;;23.20;74.10;;;;;;6126635;23;832;-69
2022/08/21 04:48:40;;;;;;;;;;;23.10;74.00;;;;;;6126973;23;769;-68
2022/08/21 04:51:07;;;;;;;;;;;23.20;74.00;;;;;;6126889;23;824;-69
2022/08/21 04:53:32;;;;;;;;;;;23.20;74.00;;;;;;6101046;23;1251;-68
2022/08/21 04:56:00;;;;;;;;;;;23.20;74.00;;;;;;6126504;23;999;-69
2022/08/21 04:58:25;;;;;;;;;;;23.10;74.00;;;;;;6101007;23;1006;-69
2022/08/21 05:00:51;;;;;;;;;;;23.10;74.00;;;;;;6126821;23;750;-69
2022/08/21 05:03:17;;;;;;;;;;;23.10;74.00;;;;;;6100824;23;1196;-69
2022/08/21 05:05:43;;;;;;;;;;;23.10;74.00;;;;;;6100368;23;1937;-69
2022/08/21 05:08:09;;;;;;;;;;;23.20;74.00;;;;;;6101037;23;856;-70
2022/08/21 05:10:35;;;;;;;;;;;23.10;74.00;;;;;;6100807;23;765;-69
2022/08/21 05:13:01;;;;;;;;;;;23.20;74.10;;;;;;6127005;23;821;-68
2022/08/21 05:15:26;;;;;;;;;;;23.20;74.00;;;;;;6126554;23;1250;-68
2022/08/21 05:17:52;;;;;;;;;;;23.10;74.00;;;;;;6126459;23;785;-69
2022/08/21 05:20:18;;;;;;;;;;;23.10;74.00;;;;;;6126801;23;833;-69
2022/08/21 05:22:43;;;;;;;;;;;23.10;74.00;;;;;;6126680;23;833;-68
2022/08/21 05:25:09;;;;;;;;;;;23.10;73.90;;;;;;6126364;23;1893;-70
2022/08/21 05:27:34;;;;;;;;;;;23.20;74.00;;;;;;6100811;23;792;-70
2022/08/21 05:30:00;;;;;;;;;;;23.20;74.00;;;;;;6126853;23;915;-69
2022/08/21 05:32:27;;;;;;;;;;;23.20;74.00;;;;;;6099958;23;746;-70
2022/08/21 05:34:53;;;;;;;;;;;23.20;74.00;;;;;;6121475;23;1286;-69
2022/08/21 05:37:18;;;;;;;;;;;23.20;74.00;;;;;;6075461;23;1181;-69
2022/08/21 05:39:44;;;;;;;;;;;23.20;74.00;;;;;;6126244;23;785;-69
2022/08/21 05:42:09;;;;;;;;;;;23.20;74.00;;;;;;6126195;23;822;-70
2022/08/21 05:44:35;;;;;;;;;;;23.10;74.70;;;;;;6100449;23;1893;-69
2022/08/21 05:47:04;;;;;;;;;;;23.20;74.00;;;;;;6125889;23;994;-68
2022/08/21 05:49:29;;;;;;;;;;;23.20;74.00;;;;;;6100583;23;804;-69
2022/08/21 05:51:55;;;;;;;;;;;23.10;73.90;;;;;;6126153;23;1002;-69
2022/08/21 05:54:20;;;;;;;;;;;23.10;73.90;;;;;;6126332;23;1200;-69
2022/08/21 05:56:46;;;;;;;;;;;23.10;73.90;;;;;;6122652;23;1042;-70
2022/08/21 05:59:12;;;;;;;;;;;23.10;73.90;;;;;;6125934;23;790;-69
2022/08/21 06:01:38;;;;;;;;;;;23.20;74.00;;;;;;6100149;23;1330;-70
2022/08/21 06:04:04;;;;;;;;;;;23.10;74.00;;;;;;6124873;23;1894;-70
2022/08/21 06:06:29;;;;;;;;;;;23.10;74.00;;;;;;6126024;23;796;-70
2022/08/21 06:08:55;;;;;;;;;;;23.20;74.00;;;;;;6126079;23;837;-71
2022/08/21 06:11:20;;;;;;;;;;;23.20;74.00;;;;;;6100854;23;943;-69
2022/08/21 06:13:46;;;;;;;;;;;23.10;73.90;;;;;;6126032;23;1272;-70
2022/08/21 06:16:12;;;;;;;;;;;23.10;73.90;;;;;;6100948;23;1018;-70
2022/08/21 06:18:37;;;;;;;;;;;23.10;73.90;;;;;;6101332;23;946;-70
2022/08/21 06:21:03;;;;;;;;;;;23.20;74.00;;;;;;6100925;23;833;-70
2022/08/21 06:23:28;;;;;;;;;;;23.10;73.90;;;;;;6077316;23;1243;-70
2022/08/21 06:25:54;;;;;;;;;;;23.20;74.10;;;;;;6126410;23;1877;-69
2022/08/21 06:28:20;;;;;;;;;;;23.20;74.40;;;;;;6126165;23;928;-70
2022/08/21 06:30:45;;;;;;;;;;;23.20;74.50;;;;;;6126070;23;765;-70
2022/08/21 06:33:10;;;;;;;;;;;23.20;74.40;;;;;;6125961;23;1023;-69
2022/08/21 06:35:36;;;;;;;;;;;23.20;74.40;;;;;;6076193;23;1374;-69
2022/08/21 06:38:02;;;;;;;;;;;23.20;74.40;;;;;;6100328;23;812;-70
2022/08/21 06:40:28;;;;;;;;;;;23.20;74.40;;;;;;6100264;23;1019;-69
2022/08/21 06:42:53;;;;;;;;;;;23.20;74.30;;;;;;6100308;23;845;-69
2022/08/21 06:45:19;;;;;;;;;;;23.20;74.30;;;;;;6125539;23;1885;-70
2022/08/21 06:47:44;;;;;;;;;;;23.20;74.30;;;;;;6125993;23;954;-69
2022/08/21 06:50:10;;;;;;;;;;;23.20;74.30;;;;;;6125966;23;760;-69
2022/08/21 06:52:35;;;;;;;;;;;23.20;74.20;;;;;;6100070;23;817;-70
2022/08/21 06:55:01;;;;;;;;;;;23.20;74.20;;;;;;6125280;23;1295;-69
2022/08/21 06:57:26;;;;;;;;;;;23.20;74.30;;;;;;6075931;23;1335;-69
2022/08/21 06:59:52;;;;;;;;;;;23.20;75.20;;;;;;6125841;23;998;-69
2022/08/21 07:02:17;;;;;;;;;;;23.20;74.60;;;;;;6125998;23;802;-69
2022/08/21 07:04:43;;;;;;;;;;;23.20;74.60;;;;;;6125623;23;1901;-69
2022/08/21 07:07:08;;;;;;;;;;;23.20;74.60;;;;;;6075757;23;1158;-69
2022/08/21 07:09:34;;;;;;;;;;;23.20;74.60;;;;;;6125990;23;718;-68
2022/08/21 07:11:59;;;;;;;;;;;23.20;74.50;;;;;;6126143;23;774;-69
2022/08/21 07:14:24;;;;;;;;;;;23.20;74.60;;;;;;6076515;23;1296;-68
2022/08/21 07:16:51;;;;;;;;;;;23.20;74.60;;;;;;6126010;23;873;-69
2022/08/21 07:19:16;;;;;;;;;;;23.20;74.50;;;;;;6126784;23;797;-68
2022/08/21 07:21:42;;;;;;;;;;;23.20;74.50;;;;;;6125885;23;701;-69
2022/08/21 07:24:07;;;;;;;;;;;23.20;74.40;;;;;;6125784;23;1928;-69
2022/08/21 07:26:32;;;;;;;;;;;23.20;74.40;;;;;;6125378;23;915;-69
2022/08/21 07:28:58;;;;;;;;;;;23.10;74.30;;;;;;6125855;23;884;-69
2022/08/21 07:31:24;;;;;;;;;;;23.10;74.30;;;;;;6125693;23;777;-69
2022/08/21 07:33:49;;;;;;;;;;;23.20;74.30;;;;;;6125979;23;1193;-68
2022/08/21 07:36:15;;;;;;;;;;;23.20;74.30;;;;;;6099501;23;1007;-69
2022/08/21 07:38:40;;;;;;;;;;;23.10;74.20;;;;;;6125852;23;797;-69
2022/08/21 07:41:08;;;;;;;;;;;23.20;74.30;;;;;;6125735;23;896;-68
2022/08/21 07:43:34;;;;;;;;;;;23.20;74.20;;;;;;6099940;23;1275;-67
2022/08/21 07:45:59;;;;;;;;;;;23.20;74.20;;;;;;6125324;23;1921;-68
2022/08/21 07:48:25;;;;;;;;;;;23.20;74.20;;;;;;6126206;23;963;-68
2022/08/21 07:50:50;;;;;;;;;;;23.20;74.10;;;;;;6099615;23;1301;-67
2022/08/21 07:53:16;;;;;;;;;;;23.10;74.10;;;;;;6125418;23;1212;-67
2022/08/21 07:55:41;;;;;;;;;;;23.20;74.20;;;;;;6075690;23;1169;-68
2022/08/21 07:58:07;;;;;;;;;;;23.20;74.10;;;;;;6099489;23;1140;-68
2022/08/21 08:00:32;;;;;;;;;;;23.10;74.10;;;;;;6101612;23;860;-69
2022/08/21 08:02:58;;;;;;;;;;;23.10;74.10;;;;;;6101306;23;876;-69
2022/08/21 08:05:25;;;;;;;;;;;23.20;74.10;;;;;;6101028;23;1917;-69
2022/08/21 08:07:51;;;;;;;;;;;23.20;74.20;;;;;;6126209;23;887;-69
2022/08/21 08:10:16;;;;;;;;;;;23.20;74.10;;;;;;6101497;23;761;-68
2022/08/21 08:12:42;;;;;;;;;;;23.20;74.10;;;;;;6127093;23;805;-68
2022/08/21 08:15:08;;;;;;;;;;;23.20;74.10;;;;;;6127057;23;1271;-69
2022/08/21 08:17:34;;;;;;;;;;;23.20;74.20;;;;;;6100635;23;901;-69
2022/08/21 08:20:02;;;;;;;;;;;23.20;74.10;;;;;;6101038;23;987;-69
2022/08/21 08:22:28;;;;;;;;;;;23.20;74.10;;;;;;6101674;23;1051;-69
2022/08/21 08:24:53;;;;;;;;;;;23.20;74.20;;;;;;6126921;23;1889;-69
2022/08/21 08:27:19;;;;;;;;;;;23.20;74.20;;;;;;6126657;23;837;-69
2022/08/21 08:29:44;;;;;;;;;;;23.20;74.20;;;;;;6077137;23;1422;-67
2022/08/21 08:32:10;;;;;;;;;;;23.10;74.10;;;;;;6127212;23;861;-70
2022/08/21 08:34:35;;;;;;;;;;;23.20;74.10;;;;;;6126728;23;1267;-69
2022/08/21 08:37:01;;;;;;;;;;;23.20;74.20;;;;;;6100614;23;1042;-68
2022/08/21 08:39:26;;;;;;;;;;;23.20;74.10;;;;;;6127045;23;830;-67
2022/08/21 08:42:05;;;;;;;;;;;23.20;74.10;;;;;;6100777;23;801;-68
2022/08/21 08:44:30;;;;;;;;;;;23.10;74.10;;;;;;6126837;23;1897;-69
2022/08/21 08:46:56;;;;;;;;;;;23.20;74.10;;;;;;6100453;23;773;-69
2022/08/21 08:49:31;;;;;;;;;;;23.20;74.10;;;;;;6101024;23;805;-70
2022/08/21 08:51:56;;;;;;;;;;;23.20;74.10;;;;;;6126686;23;999;-69
2022/08/21 08:54:31;;;;;;;;;;;23.20;74.10;;;;;;6126639;23;1267;-69
2022/08/21 08:57:00;;;;;;;;;;;23.10;74.00;;;;;;6126391;23;829;-68
2022/08/21 08:59:58;;;;;;;;;;;23.10;73.90;;;;;;6100531;23;834;-70
2022/08/21 09:02:24;;;;;;;;;;;23.10;73.90;;;;;;6062680;23;1336;-70
2022/08/21 09:04:50;;;;;;;;;;;23.20;74.00;;;;;;6100612;23;1901;-69
2022/08/21 09:07:18;;;;;;;;;;;23.10;73.90;;;;;;6100499;23;933;-69
2022/08/21 09:09:44;;;;;;;;;;;23.20;74.00;;;;;;6126966;23;808;-70
2022/08/21 09:12:22;;;;;;;;;;;23.20;73.90;;;;;;6126560;23;817;-69
2022/08/21 09:14:50;;;;;;;;;;;23.20;73.90;;;;;;6127012;23;1231;-69
2022/08/21 09:17:30;;;;;;;;;;;23.20;73.90;;;;;;6126513;23;786;-68
2022/08/21 09:20:19;;;;;;;;;;;23.20;74.00;;;;;;6101572;23;770;-70
2022/08/21 09:23:13;;;;;;;;;;;23.10;73.90;;;;;;6111242;23;1232;-70
2022/08/21 09:25:45;;;;;;;;;;;23.20;73.90;;;;;;6021849;23;1915;-68
2022/08/21 09:28:12;;;;;;;;;;;23.20;74.00;;;;;;6101098;23;900;-69
2022/08/21 09:30:37;;;;;;;;;;;23.20;74.00;;;;;;6126588;23;864;-68
2022/08/21 09:33:03;;;;;;;;;;;23.20;74.00;;;;;;6076404;23;1170;-68
2022/08/21 09:35:28;;;;;;;;;;;23.10;73.90;;;;;;6099952;23;1252;-69
2022/08/21 09:37:55;;;;;;;;;;;23.20;74.00;;;;;;6100557;23;949;-69
2022/08/21 09:40:25;;;;;;;;;;;23.10;73.90;;;;;;6100647;23;888;-69
2022/08/21 09:42:54;;;;;;;;;;;23.20;73.90;;;;;;6101123;23;943;-69
2022/08/21 09:45:20;;;;;;;;;;;23.10;73.80;;;;;;6100050;23;1927;-69
2022/08/21 09:47:45;;;;;;;;;;;23.10;73.90;;;;;;6126417;23;805;-69
2022/08/21 09:50:18;;;;;;;;;;;23.20;73.90;;;;;;6126383;23;880;-69
2022/08/21 09:52:48;;;;;;;;;;;23.10;73.90;;;;;;6126552;23;920;-69
2022/08/21 09:57:38;;;;;;;;;;;23.10;73.90;;;;;;6076220;23;1402;-69
2022/08/21 09:58:01;;;;;;;;;;;23.10;73.80;;;;;;6125602;23;1179;-69
2022/08/21 10:00:30;;;;;;;;;;;23.10;73.80;;;;;;6125788;23;773;-69
2022/08/21 10:03:14;;;;;;;;;;;23.10;73.70;;;;;;6126312;23;824;-71
2022/08/21 10:05:39;;;;;;;;;;;23.20;73.80;;;;;;6124299;23;2026;-66
2022/08/21 10:08:05;;;;;;;;;;;23.20;73.80;;;;;;6099475;23;860;-64
2022/08/21 10:10:32;;;;;;;;;;;23.20;73.80;;;;;;6098020;23;1273;-63
2022/08/21 10:13:00;;;;;;;;;;;23.10;73.70;;;;;;6099985;23;883;-65
2022/08/21 10:15:31;;;;;;;;;;;23.20;73.80;;;;;;6125516;23;1283;-64
2022/08/21 10:17:57;;;;;;;;;;;23.20;73.80;;;;;;6125689;23;836;-65
2022/08/21 10:20:23;;;;;;;;;;;23.10;73.70;;;;;;6125778;23;824;-63
2022/08/21 10:22:49;;;;;;;;;;;23.10;73.70;;;;;;6099403;23;848;-63
2022/08/21 10:25:17;;;;;;;;;;;23.20;73.80;;;;;;6125226;23;1950;-64
2022/08/21 10:27:49;;;;;;;;;;;23.20;73.80;;;;;;6099315;23;773;-64
2022/08/21 10:30:19;;;;;;;;;;;23.10;73.70;;;;;;6125719;23;828;-62
2022/08/21 10:32:45;;;;;;;;;;;23.10;73.70;;;;;;6099784;23;1015;-62
2022/08/21 10:35:13;;;;;;;;;;;23.20;73.80;;;;;;6125654;23;1191;-64
2022/08/21 10:37:48;;;;;;;;;;;23.20;73.80;;;;;;6124948;23;916;-64
2022/08/21 10:40:32;;;;;;;;;;;23.10;73.70;;;;;;6125660;23;998;-66
2022/08/21 10:43:16;;;;;;;;;;;23.20;73.80;;;;;;6125390;23;845;-64
2022/08/21 10:45:48;;;;;;;;;;;23.10;73.70;;;;;;6125000;23;1889;-63
2022/08/21 10:48:21;;;;;;;;;;;23.20;73.70;;;;;;6125307;23;856;-65
2022/08/21 10:51:22;;;;;;;;;;;23.10;73.70;;;;;;6099814;23;1014;-62
2022/08/21 10:53:54;;;;;;;;;;;23.10;73.70;;;;;;6007308;23;1327;-63
2022/08/21 10:56:30;;;;;;;;;;;23.20;73.80;;;;;;6080108;23;1298;-63
2022/08/21 10:59:00;;;;;;;;;;;23.10;73.80;;;;;;6099463;23;848;-66
2022/08/21 11:01:31;;;;;;;;;;;23.10;73.80;;;;;;6075803;23;1197;-65
2022/08/21 11:04:20;;;;;;;;;;;23.20;73.80;;;;;;6099559;23;845;-66
2022/08/21 11:06:47;;;;;;;;;;;23.10;73.80;;;;;;6083663;23;1300;-65
2022/08/21 11:09:14;;;;;;;;;;;23.10;73.80;;;;;;6099461;23;789;-66
2022/08/21 11:11:42;;;;;;;;;;;23.20;73.90;;;;;;6100076;23;815;-64
2022/08/21 11:14:07;;;;;;;;;;;23.20;73.90;;;;;;6125713;23;813;-65
2022/08/21 11:16:39;;;;;;;;;;;23.20;73.90;;;;;;6125114;23;1304;-67
2022/08/21 11:19:23;;;;;;;;;;;23.10;73.90;;;;;;6125105;23;813;-65
2022/08/21 11:21:51;;;;;;;;;;;23.20;73.90;;;;;;6125075;23;1019;-65
2022/08/21 11:24:22;;;;;;;;;;;23.20;73.90;;;;;;6099124;23;1944;-65
2022/08/21 11:26:50;;;;;;;;;;;23.20;74.00;;;;;;6098862;23;1038;-66
2022/08/21 11:29:17;;;;;;;;;;;23.10;73.80;;;;;;6099491;23;883;-65
2022/08/21 11:31:57;;;;;;;;;;;23.10;73.80;;;;;;6099347;23;845;-63
2022/08/21 11:34:40;;;;;;;;;;;23.10;73.80;;;;;;6099136;23;1331;-65
2022/08/21 11:37:11;;;;;;;;;;;23.20;73.90;;;;;;6101003;23;833;-63
2022/08/21 11:39:36;;;;;;;;;;;23.10;73.70;;;;;;6126193;23;671;-65
2022/08/21 11:42:09;;;;;;;;;;;23.10;73.70;;;;;;6126803;23;832;-66
2022/08/21 11:44:50;;;;;;;;;;;23.10;73.70;;;;;;6100055;23;1862;-67
2022/08/21 11:47:15;;;;;;;;;;;23.20;73.80;;;;;;6075648;23;1264;-65
2022/08/21 11:49:46;;;;;;;;;;;23.20;73.80;;;;;;6127182;23;797;-67
2022/08/21 11:52:12;;;;;;;;;;;23.10;73.70;;;;;;6126875;23;817;-65
2022/08/21 11:54:37;;;;;;;;;;;23.20;73.80;;;;;;6126635;23;1282;-65
2022/08/21 11:57:05;;;;;;;;;;;23.10;73.70;;;;;;6100127;23;1169;-65
2022/08/21 11:59:39;;;;;;;;;;;23.10;73.70;;;;;;6100765;23;828;-68
2022/08/21 12:02:06;;;;;;;;;;;23.10;73.70;;;;;;6100955;23;892;-66
2022/08/21 12:07:32;;;;;;;;;;;23.20;73.80;;;;;;6074500;23;1065;-65
2022/08/21 12:09:58;;;;;;;;;;;23.10;73.70;;;;;;6100579;23;1068;-66
2022/08/21 12:12:29;;;;;;;;;;;23.20;73.70;;;;;;6100650;23;797;-68
2022/08/21 12:15:13;;;;;;;;;;;23.20;73.70;;;;;;6126416;23;1270;-67
2022/08/21 12:17:39;;;;;;;;;;;23.10;73.70;;;;;;6126111;23;1034;-65
2022/08/21 12:20:20;;;;;;;;;;;23.20;73.80;;;;;;6100892;23;828;-66
2022/08/21 12:22:53;;;;;;;;;;;23.10;73.70;;;;;;6126640;23;820;-67
2022/08/21 12:25:18;;;;;;;;;;;23.20;73.80;;;;;;6126236;23;1909;-67
2022/08/21 12:27:45;;;;;;;;;;;23.20;73.90;;;;;;6100360;23;934;-68
2022/08/21 12:30:32;;;;;;;;;;;23.20;73.80;;;;;;6100607;23;912;-67
2022/08/21 12:32:59;;;;;;;;;;;23.20;73.80;;;;;;6100776;23;929;-67
2022/08/21 12:35:27;;;;;;;;;;;23.10;73.80;;;;;;6100352;23;1214;-66
2022/08/21 12:38:03;;;;;;;;;;;23.10;73.80;;;;;;6100650;23;943;-67
2022/08/21 12:40:42;;;;;;;;;;;23.20;73.90;;;;;;6100284;23;947;-66
2022/08/21 12:43:11;;;;;;;;;;;23.10;73.80;;;;;;6100766;23;1046;-66
2022/08/21 12:45:39;;;;;;;;;;;23.20;73.90;;;;;;6099938;23;1952;-66
2022/08/21 12:48:22;;;;;;;;;;;23.20;73.90;;;;;;6126532;23;784;-67
2022/08/21 12:50:50;;;;;;;;;;;23.10;73.80;;;;;;6100347;23;1089;-66
2022/08/21 12:53:30;;;;;;;;;;;23.20;73.80;;;;;;6126328;23;793;-66
2022/08/21 12:56:00;;;;;;;;;;;23.10;73.70;;;;;;6126405;23;1176;-65
2022/08/21 12:58:26;;;;;;;;;;;23.10;73.70;;;;;;6102560;23;872;-65
2022/08/21 13:00:56;;;;;;;;;;;23.10;73.80;;;;;;6127113;23;797;-66
2022/08/21 13:03:22;;;;;;;;;;;23.10;73.80;;;;;;6126592;23;892;-67
2022/08/21 13:05:48;;;;;;;;;;;23.20;73.80;;;;;;6100050;23;1935;-66
2022/08/21 13:08:13;;;;;;;;;;;23.20;73.80;;;;;;6126999;23;830;-63
2022/08/21 13:10:39;;;;;;;;;;;23.10;73.70;;;;;;6126857;23;797;-63
2022/08/21 13:13:10;;;;;;;;;;;23.10;73.70;;;;;;6101006;23;837;-65
2022/08/21 13:15:37;;;;;;;;;;;23.10;73.80;;;;;;6126310;23;1291;-65
2022/08/21 13:18:03;;;;;;;;;;;23.10;73.80;;;;;;6100345;23;888;-66
2022/08/21 13:20:32;;;;;;;;;;;23.20;73.90;;;;;;6126214;23;781;-67
2022/08/21 13:22:58;;;;;;;;;;;23.20;73.90;;;;;;6126094;23;834;-66
2022/08/21 13:25:27;;;;;;;;;;;23.20;73.90;;;;;;6125985;23;1930;-65
2022/08/21 13:27:58;;;;;;;;;;;23.10;73.90;;;;;;6125954;23;932;-65
2022/08/21 13:30:24;;;;;;;;;;;23.10;73.80;;;;;;6126174;23;836;-65
2022/08/21 13:32:50;;;;;;;;;;;23.10;73.80;;;;;;6100228;23;1330;-65
2022/08/21 13:35:19;;;;;;;;;;;23.20;73.90;;;;;;6100168;23;1303;-64
2022/08/21 13:37:44;;;;;;;;;;;23.20;73.90;;;;;;6126009;23;797;-66
2022/08/21 13:40:11;;;;;;;;;;;23.10;73.90;;;;;;6126312;23;912;-66
2022/08/21 13:42:38;;;;;;;;;;;23.20;73.90;;;;;;6100328;23;789;-66
2022/08/21 13:45:04;;;;;;;;;;;23.20;73.90;;;;;;6125757;23;1885;-65
2022/08/21 13:47:29;;;;;;;;;;;23.20;73.90;;;;;;6099846;23;1317;-64
2022/08/21 13:49:55;;;;;;;;;;;23.10;73.90;;;;;;6100281;23;805;-65
2022/08/21 13:52:21;;;;;;;;;;;23.10;73.90;;;;;;6126285;23;792;-63
2022/08/21 13:54:54;;;;;;;;;;;23.10;73.90;;;;;;6125881;23;1262;-63
2022/08/21 13:57:24;;;;;;;;;;;23.20;73.90;;;;;;6125415;23;848;-64
2022/08/21 13:59:49;;;;;;;;;;;23.20;73.90;;;;;;6126006;23;971;-64
2022/08/21 14:02:19;;;;;;;;;;;23.20;73.90;;;;;;6126158;23;899;-64
2022/08/21 14:04:58;;;;;;;;;;;23.20;74.00;;;;;;6099743;23;1910;-65
2022/08/21 14:07:34;;;;;;;;;;;23.10;73.80;;;;;;6100302;23;833;-66
2022/08/21 14:10:06;;;;;;;;;;;23.20;73.80;;;;;;6099906;23;793;-64
2022/08/21 14:12:38;;;;;;;;;;;23.10;73.80;;;;;;6100400;23;909;-64
2022/08/21 14:15:05;;;;;;;;;;;23.20;73.80;;;;;;6099367;23;1589;-65
2022/08/21 14:17:35;;;;;;;;;;;23.20;73.90;;;;;;6099433;23;829;-63
2022/08/21 14:20:00;;;;;;;;;;;23.20;73.90;;;;;;6126069;23;867;-66
2022/08/21 14:22:37;;;;;;;;;;;23.20;73.90;;;;;;6125851;23;1211;-65
2022/08/21 14:25:07;;;;;;;;;;;23.20;73.90;;;;;;6100260;23;1924;-64
2022/08/21 14:27:33;;;;;;;;;;;23.20;74.00;;;;;;6125643;23;867;-64
2022/08/21 14:30:00;;;;;;;;;;;23.20;74.00;;;;;;6100427;23;832;-63
2022/08/21 14:32:27;;;;;;;;;;;23.20;74.00;;;;;;6126151;23;850;-64
2022/08/21 14:34:52;;;;;;;;;;;23.20;74.00;;;;;;6125745;23;1254;-64
2022/08/21 14:37:18;;;;;;;;;;;23.20;74.00;;;;;;6099840;23;852;-64
2022/08/21 14:39:45;;;;;;;;;;;23.20;73.90;;;;;;6125742;23;941;-65
2022/08/21 14:42:10;;;;;;;;;;;23.20;74.00;;;;;;6126027;23;830;-65
2022/08/21 14:44:36;;;;;;;;;;;23.10;73.90;;;;;;6125804;23;1949;-63